createdAt,value
2018-12-04T00:00:55.534Z,78.47
2018-12-04T00:03:24.459Z,78.05
2018-12-04T00:05:30.589Z,78.03
2018-12-04T00:07:37.462Z,77.82
2018-12-04T00:09:43.557Z,78.58
2018-12-04T00:11:50.220Z,78.30
2018-12-04T00:13:56.349Z,78.33
2018-12-04T00:16:03.687Z,78.86
2018-12-04T00:18:11.224Z,78.16
2018-12-04T00:20:17.518Z,78.99
2018-12-04T00:22:24.442Z,78.37
2018-12-04T00:24:30.807Z,78.29
2018-12-04T00:26:37.166Z,78.70
2018-12-04T00:28:43.238Z,78.47
2018-12-04T00:30:49.347Z,78.19
2018-12-04T00:33:03.191Z,78.38
2018-12-04T00:35:10.620Z,78.84
2018-12-04T00:37:17.637Z,78.23
2018-12-04T00:39:24.373Z,77.87
2018-12-04T00:41:30.517Z,78.30
2018-12-04T00:43:36.620Z,77.80
2018-12-04T00:45:42.934Z,78.04
2018-12-04T00:47:49.295Z,78.22
2018-12-04T00:49:55.580Z,77.88
2018-12-04T00:52:01.653Z,78.08
2018-12-04T00:54:08.374Z,78.59
2018-12-04T00:56:14.430Z,78.23
2018-12-04T00:58:20.589Z,77.92
2018-12-04T01:00:26.978Z,78.44
2018-12-04T01:02:33.634Z,77.95
2018-12-04T01:04:39.799Z,78.12
2018-12-04T01:06:46.174Z,78.67
2018-12-04T01:08:52.462Z,77.95
2018-12-04T01:10:58.921Z,78.20
2018-12-04T01:13:05.294Z,78.00
2018-12-04T01:15:11.498Z,78.22
2018-12-04T01:17:18.056Z,78.17
2018-12-04T01:19:24.270Z,78.54
2018-12-04T01:21:30.398Z,77.61
2018-12-04T01:23:37.046Z,78.24
2018-12-04T01:25:43.216Z,78.57
2018-12-04T01:27:49.366Z,78.22
2018-12-04T01:29:55.638Z,78.39
2018-12-04T01:32:05.592Z,78.05
2018-12-04T01:34:12.470Z,78.25
2018-12-04T01:36:18.690Z,77.90
2018-12-04T01:38:47.593Z,78.12
2018-12-04T01:41:19.155Z,78.33
2018-12-04T01:43:25.323Z,78.20
2018-12-04T01:45:31.596Z,78.11
2018-12-04T01:47:37.833Z,77.57
2018-12-04T01:49:44.079Z,78.02
2018-12-04T01:51:50.162Z,77.47
2018-12-04T01:53:56.326Z,77.94
2018-12-04T01:56:03.619Z,77.94
2018-12-04T01:58:09.742Z,78.08
2018-12-04T02:00:16.030Z,77.79
2018-12-04T02:02:22.280Z,77.67
2018-12-04T02:04:29.946Z,77.89
2018-12-04T02:06:37.100Z,77.96
2018-12-04T02:08:49.598Z,77.43
2018-12-04T02:10:56.603Z,77.59
2018-12-04T02:13:03.580Z,77.38
2018-12-04T02:15:10.047Z,77.74
2018-12-04T02:19:32.730Z,77.55
2018-12-04T02:21:39.937Z,77.41
2018-12-04T02:23:47.378Z,78.10
2018-12-04T02:25:53.622Z,77.39
2018-12-04T02:27:59.914Z,77.70
2018-12-04T02:30:06.122Z,77.74
2018-12-04T02:32:12.374Z,77.80
2018-12-04T02:34:19.186Z,77.62
2018-12-04T02:36:25.246Z,77.45
2018-12-04T02:38:31.284Z,77.77
2018-12-04T02:40:37.372Z,76.90
2018-12-04T02:42:43.408Z,77.45
2018-12-04T02:44:50.473Z,77.01
2018-12-04T02:46:56.574Z,77.01
2018-12-04T02:49:02.859Z,77.02
2018-12-04T02:51:08.981Z,77.17
2018-12-04T02:53:15.068Z,77.67
2018-12-04T02:55:21.124Z,77.52
2018-12-04T02:57:27.197Z,77.53
2018-12-04T02:59:33.334Z,77.65
2018-12-04T03:01:39.498Z,77.62
2018-12-04T03:03:46.251Z,77.30
2018-12-04T03:05:52.526Z,77.29
2018-12-04T03:07:58.909Z,77.37
2018-12-04T03:10:27.391Z,77.27
2018-12-04T03:12:56.289Z,77.29
2018-12-04T03:15:03.441Z,77.93
2018-12-04T03:17:09.613Z,77.67
2018-12-04T03:19:15.656Z,77.12
2018-12-04T03:21:21.776Z,77.33
2018-12-04T03:23:27.846Z,77.28
2018-12-04T03:25:34.395Z,77.60
2018-12-04T03:27:40.574Z,77.06
2018-12-04T03:29:47.041Z,77.19
2018-12-04T03:31:53.330Z,77.21
2018-12-04T03:33:59.824Z,77.14
2018-12-04T03:36:06.132Z,77.34
2018-12-04T03:38:13.329Z,77.22
2018-12-04T03:40:19.706Z,77.55
2018-12-04T03:42:25.845Z,77.80
2018-12-04T03:44:31.954Z,77.58
2018-12-04T03:46:38.002Z,77.40
2018-12-04T03:48:44.159Z,77.46
2018-12-04T03:50:50.379Z,77.26
2018-12-04T03:52:57.282Z,77.13
2018-12-04T03:55:04.144Z,77.62
2018-12-04T03:57:10.280Z,77.46
2018-12-04T03:59:16.462Z,77.15
2018-12-04T04:01:24.557Z,77.11
2018-12-04T04:03:30.709Z,77.13
2018-12-04T04:05:36.898Z,77.05
2018-12-04T04:07:43.326Z,77.90
2018-12-04T04:09:50.090Z,77.61
2018-12-04T04:11:56.375Z,77.04
2018-12-04T04:14:02.605Z,77.09
2018-12-04T04:16:08.689Z,77.03
2018-12-04T04:18:14.830Z,77.38
2018-12-04T04:20:20.910Z,77.29
2018-12-04T04:22:27.074Z,77.06
2018-12-04T04:24:33.218Z,77.49
2018-12-04T04:26:39.724Z,77.47
2018-12-04T04:28:46.435Z,77.35
2018-12-04T04:30:52.494Z,76.99
2018-12-04T04:32:58.610Z,76.71
2018-12-04T04:35:06.898Z,76.93
2018-12-04T04:37:12.971Z,76.96
2018-12-04T04:39:19.737Z,76.80
2018-12-04T04:41:25.823Z,76.75
2018-12-04T04:43:31.955Z,76.42
2018-12-04T04:45:38.049Z,76.42
2018-12-04T04:47:44.183Z,76.37
2018-12-04T04:49:50.408Z,76.60
2018-12-04T04:51:56.720Z,76.80
2018-12-04T04:54:04.876Z,76.55
2018-12-04T04:56:11.029Z,77.15
2018-12-04T04:58:17.142Z,77.06
2018-12-04T05:00:47.030Z,76.66
2018-12-04T05:03:16.285Z,76.45
2018-12-04T05:05:22.620Z,76.56
2018-12-04T05:07:28.742Z,76.20
2018-12-04T05:09:35.059Z,77.04
2018-12-04T05:11:41.333Z,77.03
2018-12-04T05:13:47.625Z,76.88
2018-12-04T05:15:53.710Z,76.43
2018-12-04T05:17:59.895Z,76.27
2018-12-04T05:20:08.542Z,75.96
2018-12-04T05:22:14.721Z,76.39
2018-12-04T05:24:43.717Z,76.24
2018-12-04T05:27:12.024Z,76.68
2018-12-04T05:29:18.306Z,76.16
2018-12-04T05:31:24.754Z,76.73
2018-12-04T05:33:30.854Z,75.86
2018-12-04T05:35:37.115Z,76.06
2018-12-04T05:37:43.173Z,75.82
2018-12-04T05:39:49.269Z,76.25
2018-12-04T05:41:55.451Z,76.45
2018-12-04T05:44:01.932Z,76.24
2018-12-04T05:46:08.208Z,76.25
2018-12-04T05:48:14.300Z,76.07
2018-12-04T05:50:20.384Z,76.39
2018-12-04T05:52:26.786Z,75.70
2018-12-04T05:54:32.969Z,75.88
2018-12-04T05:56:39.279Z,75.73
2018-12-04T05:58:45.546Z,76.17
2018-12-04T06:03:11.752Z,75.49
2018-12-04T06:05:17.908Z,75.39
2018-12-04T06:07:24.738Z,75.47
2018-12-04T06:09:31.470Z,76.06
2018-12-04T06:11:38.000Z,75.21
2018-12-04T06:13:44.321Z,75.19
2018-12-04T06:15:50.472Z,75.65
2018-12-04T06:17:56.909Z,75.21
2018-12-04T06:20:03.214Z,75.18
2018-12-04T06:22:09.559Z,75.34
2018-12-04T06:24:38.154Z,75.25
2018-12-04T06:27:07.019Z,75.73
2018-12-04T06:29:13.181Z,75.22
2018-12-04T06:31:19.265Z,75.72
2018-12-04T06:33:25.352Z,74.81
2018-12-04T06:37:49.074Z,75.75
2018-12-04T06:39:55.518Z,75.05
2018-12-04T06:42:01.787Z,75.07
2018-12-04T06:44:07.891Z,75.01
2018-12-04T06:46:14.427Z,74.99
2018-12-04T06:48:20.590Z,75.39
2018-12-04T06:50:26.806Z,74.86
2018-12-04T06:52:33.391Z,74.83
2018-12-04T06:54:39.521Z,75.00
2018-12-04T06:56:47.486Z,74.73
2018-12-04T06:58:54.455Z,75.28
2018-12-04T07:01:01.316Z,75.21
2018-12-04T07:03:07.531Z,74.49
2018-12-04T07:05:13.776Z,75.12
2018-12-04T07:07:20.168Z,74.71
2018-12-04T07:09:26.389Z,74.82
2018-12-04T07:11:33.162Z,74.95
2018-12-04T07:13:39.516Z,74.79
2018-12-04T07:15:45.809Z,74.16
2018-12-04T07:17:52.158Z,74.73
2018-12-04T07:19:58.834Z,74.96
2018-12-04T07:22:05.095Z,74.38
2018-12-04T07:24:33.968Z,74.55
2018-12-04T07:27:03.161Z,74.03
2018-12-04T07:29:09.542Z,74.76
2018-12-04T07:31:16.508Z,74.86
2018-12-04T07:33:22.736Z,74.34
2018-12-04T07:35:28.963Z,73.92
2018-12-04T07:37:35.260Z,74.02
2018-12-04T07:39:41.414Z,73.69
2018-12-04T07:41:47.471Z,73.49
2018-12-04T07:43:53.593Z,73.32
2018-12-04T07:45:59.841Z,73.48
2018-12-04T07:48:06.362Z,73.73
2018-12-04T07:50:12.488Z,72.91
2018-12-04T07:52:18.633Z,73.41
2018-12-04T07:54:24.878Z,73.19
2018-12-04T07:56:31.034Z,73.66
2018-12-04T07:58:37.223Z,73.51
2018-12-04T08:00:43.386Z,73.09
2018-12-04T08:02:49.683Z,73.95
2018-12-04T08:04:55.869Z,73.28
2018-12-04T08:07:02.159Z,73.48
2018-12-04T08:09:09.699Z,73.92
2018-12-04T08:11:15.736Z,74.08
2018-12-04T08:13:22.090Z,73.79
2018-12-04T08:15:28.277Z,73.78
2018-12-04T08:17:34.754Z,74.03
2018-12-04T08:19:41.004Z,74.41
2018-12-04T08:21:47.816Z,74.53
2018-12-04T08:24:16.810Z,74.49
2018-12-04T08:26:44.977Z,74.06
2018-12-04T08:28:51.316Z,73.59
2018-12-04T08:30:57.487Z,74.44
2018-12-04T08:33:04.098Z,74.49
2018-12-04T08:35:11.502Z,74.94
2018-12-04T08:37:17.589Z,74.68
2018-12-04T08:39:45.779Z,74.61
2018-12-04T08:42:14.269Z,74.91
2018-12-04T08:44:20.618Z,75.10
2018-12-04T08:46:27.557Z,74.20
2018-12-04T08:48:33.757Z,74.78
2018-12-04T08:50:39.892Z,74.47
2018-12-04T08:52:46.024Z,74.64
2018-12-04T08:54:52.137Z,73.86
2018-12-04T08:56:58.239Z,73.96
2018-12-04T08:59:04.420Z,74.10
2018-12-04T09:01:10.640Z,74.23
2018-12-04T09:03:19.088Z,73.00
2018-12-04T09:05:26.199Z,73.88
2018-12-04T09:07:32.529Z,73.30
2018-12-04T09:09:38.864Z,72.83
2018-12-04T09:11:44.923Z,73.16
2018-12-04T09:13:51.063Z,72.71
2018-12-04T09:15:57.403Z,72.37
2018-12-04T09:18:03.667Z,72.20
2018-12-04T09:20:09.936Z,71.75
2018-12-04T09:22:16.288Z,72.43
2018-12-04T09:24:23.483Z,72.10
2018-12-04T09:26:29.746Z,71.76
2018-12-04T09:28:36.140Z,71.53
2018-12-04T09:30:42.829Z,71.07
2018-12-04T09:32:49.119Z,71.05
2018-12-04T09:34:55.375Z,71.05
2018-12-04T09:37:01.608Z,71.19
2018-12-04T09:39:30.256Z,70.89
2018-12-04T09:41:59.327Z,71.44
2018-12-04T09:44:05.554Z,70.82
2018-12-04T09:46:12.126Z,70.94
2018-12-04T09:48:18.293Z,71.28
2018-12-04T09:50:24.530Z,70.67
2018-12-04T09:52:31.035Z,70.22
2018-12-04T09:54:37.106Z,70.55
2018-12-04T09:56:43.347Z,70.63
2018-12-04T09:58:49.466Z,70.07
2018-12-04T10:01:18.602Z,70.26
2018-12-04T10:03:47.647Z,70.28
2018-12-04T10:05:53.823Z,70.76
2018-12-04T10:08:00.022Z,70.19
2018-12-04T10:10:07.951Z,70.50
2018-12-04T10:12:14.378Z,69.95
2018-12-04T10:14:21.281Z,69.86
2018-12-04T10:16:27.476Z,70.38
2018-12-04T10:18:33.842Z,69.67
2018-12-04T10:20:40.113Z,69.99
2018-12-04T10:22:46.590Z,70.02
2018-12-04T10:24:52.729Z,70.37
2018-12-04T10:26:59.265Z,69.87
2018-12-04T10:29:05.637Z,70.32
2018-12-04T10:31:12.118Z,69.43
2018-12-04T10:33:18.711Z,70.23
2018-12-04T10:35:25.851Z,69.71
2018-12-04T10:37:34.422Z,69.70
2018-12-04T10:39:40.699Z,69.98
2018-12-04T10:41:47.088Z,70.15
2018-12-04T10:43:53.994Z,70.48
2018-12-04T10:46:00.678Z,69.80
2018-12-04T10:48:06.883Z,69.81
2018-12-04T10:50:13.435Z,69.68
2018-12-04T10:52:19.610Z,70.17
2018-12-04T10:54:26.018Z,69.47
2018-12-04T10:56:32.098Z,69.37
2018-12-04T10:58:38.238Z,69.18
2018-12-04T11:00:49.592Z,69.34
2018-12-04T11:03:22.125Z,69.00
2018-12-04T11:05:51.242Z,68.78
2018-12-04T11:07:57.596Z,69.14
2018-12-04T11:10:04.245Z,69.21
2018-12-04T11:12:12.494Z,68.22
2018-12-04T11:14:18.828Z,68.80
2018-12-04T11:16:24.950Z,67.83
2018-12-04T11:18:31.367Z,68.14
2018-12-04T11:20:37.521Z,68.00
2018-12-04T11:22:43.817Z,68.00
2018-12-04T11:24:49.950Z,68.53
2018-12-04T11:26:56.175Z,67.99
2018-12-04T11:29:25.013Z,68.17
2018-12-04T11:31:54.452Z,68.03
2018-12-04T11:34:01.298Z,68.18
2018-12-04T11:36:07.493Z,68.53
2018-12-04T11:38:14.698Z,68.61
2018-12-04T11:40:21.495Z,68.18
2018-12-04T11:42:27.751Z,68.39
2018-12-04T11:44:33.964Z,67.93
2018-12-04T11:46:40.245Z,67.77
2018-12-04T11:48:46.308Z,68.02
2018-12-04T11:50:53.373Z,68.13
2018-12-04T11:53:00.084Z,67.54
2018-12-04T11:55:06.675Z,67.49
2018-12-04T11:57:12.841Z,67.49
2018-12-04T11:59:19.085Z,66.90
2018-12-04T12:01:30.654Z,66.73
2018-12-04T12:03:37.494Z,66.37
2018-12-04T12:05:43.843Z,66.65
2018-12-04T12:07:52.032Z,65.99
2018-12-04T12:09:59.156Z,66.33
2018-12-04T12:12:06.055Z,65.59
2018-12-04T12:14:12.202Z,66.21
2018-12-04T12:16:18.609Z,65.64
2018-12-04T12:18:24.814Z,66.29
2018-12-04T12:20:31.560Z,66.23
2018-12-04T12:22:38.023Z,65.53
2018-12-04T12:25:18.655Z,65.29
2018-12-04T12:27:48.003Z,65.76
2018-12-04T12:29:54.655Z,65.42
2018-12-04T12:32:01.460Z,64.57
2018-12-04T12:34:07.753Z,65.15
2018-12-04T12:36:14.143Z,64.67
2018-12-04T12:38:20.696Z,65.01
2018-12-04T12:40:26.864Z,65.16
2018-12-04T12:42:33.019Z,64.36
2018-12-04T12:44:39.603Z,64.31
2018-12-04T12:46:45.727Z,64.32
2018-12-04T12:48:52.007Z,64.04
2018-12-04T12:50:58.235Z,64.36
2018-12-04T12:53:05.170Z,64.17
2018-12-04T12:55:11.713Z,64.05
2018-12-04T12:57:18.697Z,63.72
2018-12-04T12:59:24.787Z,63.62
2018-12-04T13:01:31.004Z,64.33
2018-12-04T13:03:37.122Z,63.24
2018-12-04T13:05:43.233Z,63.63
2018-12-04T13:07:49.722Z,63.03
2018-12-04T13:09:56.008Z,63.29
2018-12-04T13:12:02.250Z,62.93
2018-12-04T13:14:08.578Z,62.93
2018-12-04T13:16:14.719Z,63.31
2018-12-04T13:18:20.835Z,62.99
2018-12-04T13:20:27.054Z,63.44
2018-12-04T13:22:33.887Z,63.40
2018-12-04T13:24:40.509Z,63.28
2018-12-04T13:26:46.951Z,63.13
2018-12-04T13:28:53.775Z,63.84
2018-12-04T13:31:00.003Z,63.25
2018-12-04T13:33:29.455Z,63.14
2018-12-04T13:35:58.663Z,63.83
2018-12-04T13:38:04.853Z,63.35
2018-12-04T13:40:11.179Z,64.11
2018-12-04T13:42:17.410Z,63.41
2018-12-04T13:44:23.624Z,63.33
2018-12-04T13:46:30.083Z,63.86
2018-12-04T13:48:36.386Z,63.50
2018-12-04T13:50:42.604Z,63.51
2018-12-04T13:52:48.911Z,63.79
2018-12-04T13:54:55.188Z,63.38
2018-12-04T13:57:01.391Z,64.22
2018-12-04T13:59:07.703Z,64.27
2018-12-04T14:01:36.291Z,64.08
2018-12-04T14:04:05.528Z,63.69
2018-12-04T14:06:33.822Z,63.92
2018-12-04T14:09:05.713Z,63.56
2018-12-04T14:11:12.015Z,63.92
2018-12-04T14:13:18.170Z,63.86
2018-12-04T14:15:24.337Z,63.60
2018-12-04T14:17:30.633Z,63.78
2018-12-04T14:19:36.865Z,64.05
2018-12-04T14:21:43.190Z,63.57
2018-12-04T14:24:11.430Z,64.45
2018-12-04T14:26:39.574Z,63.77
2018-12-04T14:31:03.578Z,64.01
2018-12-04T14:33:09.887Z,63.91
2018-12-04T14:35:16.194Z,64.57
2018-12-04T14:37:22.641Z,64.45
2018-12-04T14:39:30.280Z,64.07
2018-12-04T14:41:36.955Z,64.67
2018-12-04T14:43:43.211Z,64.45
2018-12-04T14:45:49.568Z,64.28
2018-12-04T14:47:56.456Z,64.32
2018-12-04T14:50:02.622Z,64.75
2018-12-04T14:52:08.858Z,64.17
2018-12-04T14:54:15.788Z,64.16
2018-12-04T14:56:21.885Z,64.66
2018-12-04T14:58:28.092Z,64.48
2018-12-04T15:00:35.473Z,64.40
2018-12-04T15:02:41.737Z,64.78
2018-12-04T15:04:55.473Z,64.50
2018-12-04T15:07:09.351Z,64.05
2018-12-04T15:09:15.708Z,64.36
2018-12-04T15:11:21.944Z,64.34
2018-12-04T15:13:28.400Z,65.16
2018-12-04T15:15:34.731Z,64.75
2018-12-04T15:17:40.928Z,64.64
2018-12-04T15:19:47.554Z,64.49
2018-12-04T15:21:53.800Z,64.39
2018-12-04T15:24:22.876Z,64.24
2018-12-04T15:26:52.107Z,63.90
2018-12-04T15:28:58.791Z,64.62
2018-12-04T15:31:05.079Z,64.53
2018-12-04T15:33:11.323Z,64.21
2018-12-04T15:35:17.599Z,64.39
2018-12-04T15:37:24.855Z,64.62
2018-12-04T15:39:32.141Z,64.37
2018-12-04T15:41:38.396Z,64.68
2018-12-04T15:43:45.551Z,64.21
2018-12-04T15:45:51.828Z,63.90
2018-12-04T15:47:58.264Z,64.52
2018-12-04T15:50:05.462Z,64.69
2018-12-04T15:52:11.805Z,64.82
2018-12-04T15:54:18.404Z,65.04
2018-12-04T15:56:24.689Z,64.45
2018-12-04T15:58:30.824Z,64.56
2018-12-04T16:00:37.015Z,64.15
2018-12-04T16:02:43.166Z,64.43
2018-12-04T16:04:49.441Z,64.72
2018-12-04T16:06:56.039Z,64.25
2018-12-04T16:09:02.237Z,64.61
2018-12-04T16:11:08.427Z,64.93
2018-12-04T16:13:50.754Z,64.38
2018-12-04T16:16:19.217Z,65.06
2018-12-04T16:18:25.535Z,64.97
2018-12-04T16:20:31.912Z,64.64
2018-12-04T16:22:38.218Z,64.99
2018-12-04T16:24:44.378Z,64.83
2018-12-04T16:26:50.639Z,64.96
2018-12-04T16:28:57.401Z,65.53
2018-12-04T16:31:03.935Z,65.06
2018-12-04T16:33:10.157Z,65.70
2018-12-04T16:35:16.375Z,65.19
2018-12-04T16:37:22.703Z,65.48
2018-12-04T16:39:29.039Z,65.34
2018-12-04T16:41:35.603Z,65.86
2018-12-04T16:43:41.701Z,65.08
2018-12-04T16:45:48.059Z,65.56
2018-12-04T16:47:54.432Z,65.52
2018-12-04T16:50:00.784Z,65.25
2018-12-04T16:52:07.161Z,65.42
2018-12-04T16:54:13.485Z,65.93
2018-12-04T16:56:19.734Z,66.13
2018-12-04T16:58:25.881Z,65.26
2018-12-04T17:00:32.063Z,65.80
2018-12-04T17:02:38.926Z,65.32
2018-12-04T17:04:45.080Z,66.16
2018-12-04T17:06:51.258Z,65.84
2018-12-04T17:08:57.403Z,66.31
2018-12-04T17:11:03.626Z,66.34
2018-12-04T17:13:09.753Z,65.91
2018-12-04T17:15:15.987Z,66.26
2018-12-04T17:17:22.303Z,66.39
2018-12-04T17:19:28.958Z,66.10
2018-12-04T17:21:35.230Z,65.98
2018-12-04T17:23:41.545Z,66.37
2018-12-04T17:25:47.615Z,66.20
2018-12-04T17:27:53.953Z,66.58
2018-12-04T17:30:00.373Z,66.50
2018-12-04T17:32:06.618Z,66.46
2018-12-04T17:34:12.836Z,66.56
2018-12-04T17:36:19.357Z,66.08
2018-12-04T17:38:25.927Z,66.38
2018-12-04T17:41:00.735Z,66.95
2018-12-04T17:43:29.215Z,66.33
2018-12-04T17:45:35.623Z,66.78
2018-12-04T17:47:42.056Z,67.02
2018-12-04T17:49:48.229Z,66.61
2018-12-04T17:51:54.457Z,67.27
2018-12-04T17:54:00.700Z,67.11
2018-12-04T17:56:09.139Z,66.53
2018-12-04T17:58:15.271Z,66.79
2018-12-04T18:00:21.665Z,67.75
2018-12-04T18:02:30.064Z,66.60
2018-12-04T18:04:37.324Z,66.90
2018-12-04T18:06:45.466Z,66.89
2018-12-04T18:08:51.939Z,66.59
2018-12-04T18:11:00.260Z,66.79
2018-12-04T18:13:06.606Z,66.29
2018-12-04T18:15:16.521Z,66.22
2018-12-04T18:17:22.902Z,66.14
2018-12-04T18:19:29.580Z,65.71
2018-12-04T18:21:35.836Z,65.94
2018-12-04T18:24:04.067Z,66.07
2018-12-04T18:26:32.383Z,66.08
2018-12-04T18:28:38.760Z,66.34
2018-12-04T18:30:45.184Z,66.05
2018-12-04T18:32:51.491Z,66.39
2018-12-04T18:34:57.706Z,66.75
2018-12-04T18:37:04.018Z,66.68
2018-12-04T18:39:10.364Z,66.51
2018-12-04T18:41:16.773Z,66.78
2018-12-04T18:43:23.169Z,66.53
2018-12-04T18:45:29.543Z,66.90
2018-12-04T18:47:36.067Z,66.59
2018-12-04T18:49:42.566Z,66.42
2018-12-04T18:51:50.487Z,66.18
2018-12-04T18:53:56.829Z,66.49
2018-12-04T18:56:03.062Z,66.44
2018-12-04T18:58:09.489Z,66.13
2018-12-04T19:00:16.552Z,66.44
2018-12-04T19:02:22.892Z,66.31
2018-12-04T19:04:30.601Z,66.00
2018-12-04T19:06:37.393Z,66.76
2018-12-04T19:08:48.409Z,66.58
2018-12-04T19:10:56.314Z,66.30
2018-12-04T19:13:02.650Z,66.23
2018-12-04T19:15:10.145Z,66.56
2018-12-04T19:17:16.460Z,66.75
2018-12-04T19:19:22.723Z,66.03
2018-12-04T19:21:29.224Z,66.44
2018-12-04T19:23:43.933Z,66.45
2018-12-04T19:26:12.920Z,66.29
2018-12-04T19:28:19.247Z,66.12
2018-12-04T19:30:25.589Z,66.45
2018-12-04T19:32:31.886Z,66.21
2018-12-04T19:34:38.853Z,66.22
2018-12-04T19:36:45.360Z,66.84
2018-12-04T19:38:51.677Z,66.67
2018-12-04T19:40:57.888Z,66.45
2018-12-04T19:43:04.266Z,66.14
2018-12-04T19:45:10.580Z,66.43
2018-12-04T19:47:16.868Z,66.37
2018-12-04T19:49:46.080Z,66.51
2018-12-04T19:52:15.140Z,66.00
2018-12-04T19:54:21.716Z,66.18
2018-12-04T19:56:27.977Z,66.20
2018-12-04T19:58:34.319Z,66.10
2018-12-04T20:00:41.071Z,66.22
2018-12-04T20:02:47.423Z,66.05
2018-12-04T20:04:59.269Z,66.23
2018-12-04T20:07:05.775Z,66.37
2018-12-04T20:09:11.975Z,66.23
2018-12-04T20:11:18.310Z,66.47
2018-12-04T20:13:24.797Z,66.28
2018-12-04T20:15:31.534Z,66.07
2018-12-04T20:17:37.735Z,66.10
2018-12-04T20:19:43.935Z,66.40
2018-12-04T20:21:50.241Z,66.40
2018-12-04T20:23:56.615Z,66.49
2018-12-04T20:26:02.862Z,66.55
2018-12-04T20:28:09.109Z,66.51
2018-12-04T20:30:15.479Z,66.80
2018-12-04T20:32:21.897Z,66.79
2018-12-04T20:34:28.283Z,66.90
2018-12-04T20:36:34.703Z,66.70
2018-12-04T20:38:41.286Z,67.23
2018-12-04T20:40:47.589Z,67.06
2018-12-04T20:42:54.071Z,66.98
2018-12-04T20:45:00.345Z,66.76
2018-12-04T20:47:06.522Z,66.69
2018-12-04T20:49:13.367Z,66.47
2018-12-04T20:51:19.709Z,66.94
2018-12-04T20:53:25.899Z,66.89
2018-12-04T20:55:32.096Z,66.94
2018-12-04T20:57:38.289Z,67.03
2018-12-04T20:59:44.606Z,66.78
2018-12-04T21:01:51.040Z,67.09
2018-12-04T21:03:57.273Z,67.20
2018-12-04T21:06:03.629Z,67.16
2018-12-04T21:08:11.047Z,67.10
2018-12-04T21:10:17.267Z,67.04
2018-12-04T21:12:23.523Z,66.98
2018-12-04T21:14:29.797Z,66.50
2018-12-04T21:16:36.057Z,66.82
2018-12-04T21:18:42.311Z,66.92
2018-12-04T21:20:48.668Z,66.77
2018-12-04T21:22:55.082Z,66.71
2018-12-04T21:25:02.030Z,66.99
2018-12-04T21:27:12.425Z,66.83
2018-12-04T21:29:23.818Z,67.28
2018-12-04T21:31:35.342Z,67.02
2018-12-04T21:36:57.829Z,67.30
2018-12-04T21:39:09.573Z,67.69
2018-12-04T21:41:21.182Z,67.91
2018-12-04T21:43:33.056Z,67.84
2018-12-04T21:45:44.269Z,67.21
2018-12-04T21:50:17.256Z,67.51
2018-12-04T21:52:23.466Z,67.46
2018-12-04T21:54:29.678Z,67.79
2018-12-04T21:56:35.790Z,67.64
2018-12-04T21:58:42.241Z,67.81
2018-12-04T22:00:49.216Z,67.57
2018-12-04T22:02:55.496Z,67.33
2018-12-04T22:05:01.656Z,67.32
2018-12-04T22:07:08.890Z,67.41
2018-12-04T22:09:15.135Z,67.36
2018-12-04T22:11:21.240Z,67.58
2018-12-04T22:13:27.432Z,67.57
2018-12-04T22:15:33.785Z,67.77
2018-12-04T22:17:41.202Z,67.86
2018-12-04T22:19:47.511Z,67.54
2018-12-04T22:21:54.218Z,67.74
2018-12-04T22:24:00.342Z,67.65
2018-12-04T22:26:07.957Z,67.63
2018-12-04T22:28:14.123Z,67.49
2018-12-04T22:30:21.195Z,67.59
2018-12-04T22:32:27.312Z,67.29
2018-12-04T22:34:33.609Z,67.14
2018-12-04T22:36:40.014Z,67.29
2018-12-04T22:38:46.266Z,67.52
2018-12-04T22:40:52.375Z,67.37
2018-12-04T22:42:58.503Z,67.50
2018-12-04T22:45:10.370Z,66.95
2018-12-04T22:47:16.503Z,67.31
2018-12-04T22:49:22.661Z,67.11
2018-12-04T22:51:28.818Z,66.94
2018-12-04T22:53:36.790Z,67.62
2018-12-04T22:55:43.218Z,67.32
2018-12-04T22:57:49.319Z,67.57
2018-12-04T22:59:55.410Z,67.70
2018-12-04T23:02:01.832Z,67.68
2018-12-04T23:06:28.213Z,67.53
2018-12-04T23:08:35.093Z,67.65
2018-12-04T23:10:41.489Z,67.50
2018-12-04T23:12:47.749Z,67.79
2018-12-04T23:14:54.079Z,67.55
2018-12-04T23:17:00.210Z,67.22
2018-12-04T23:19:06.750Z,67.31
2018-12-04T23:21:13.041Z,67.34
2018-12-04T23:23:20.227Z,67.59
2018-12-04T23:25:26.568Z,67.80
2018-12-04T23:27:34.401Z,67.60
2018-12-04T23:29:41.277Z,67.68
2018-12-04T23:31:47.517Z,67.29
2018-12-04T23:33:55.532Z,67.86
2018-12-04T23:36:02.502Z,67.86
2018-12-04T23:38:08.561Z,67.40
2018-12-04T23:40:15.505Z,67.82
2018-12-04T23:42:21.796Z,67.46
2018-12-04T23:44:27.947Z,67.88
2018-12-04T23:46:34.078Z,67.75
2018-12-04T23:48:40.798Z,67.84
2018-12-04T23:50:47.142Z,67.73
2018-12-04T23:52:53.332Z,67.58
2018-12-04T23:54:59.591Z,67.59
2018-12-04T23:57:05.804Z,68.06
2018-12-04T23:59:11.984Z,67.53
